New Harbor, ME

43° 52' 34"N, 69° 29' 40"W, Elevation 65 ft.
Eastern Time

Hourly observations for the last 72 hours

Date Time Temperature (°F) Humi-
dity

(%)
Wind
(mph)
Pressure Rain (in) Sun
(W/m2)
ET
(in)
Air Dew 6 Hour 1 Hr 3 Hr 6 Hr Day
Alt
(in)
Sea
Level

(mb)
Max Min
26 06:00 56.7 55.3 95 Calm 29.85 1010.7 0.00 23 0.000
26 05:00 57.5 55.8 94 Calm 29.83 1010.3 0.00 0 0.000
26 04:00 58.0 56.0 93 WSW 0 G 2 29.83 1010.0 0.00 0 0.000
26 03:00 59.0 56.7 92 Calm 29.83 1010.1 0.00 0 0.000
26 02:00 60.0 57.1 65.7 60.0 90 Calm 29.83 1010.4 0.00 0 0.000
26 01:00 60.9 57.0 87 Calm 29.84 1010.5 0.00 0 0.000
26 00:00 60.7 56.2 85 Calm 29.85 1010.9 0.00 0 0.210
25 23:00 62.2 56.6 82 Calm 29.85 1010.7 0.00 0 0.209
25 22:00 64.5 56.8 76 WNW 4 G 8 29.85 1011.0 0.00 0 0.208
25 21:00 64.4 56.7 76 WSW 0 G 6 29.83 1010.2 0.00 0 0.207
25 20:00 65.7 57.2 81.8 65.7 74 WSW 3 G 6 29.83 1010.2 0.00 11 0.205
25 19:00 69.1 56.9 65 SW 6 G 14 29.82 1009.7 0.00 81 0.202
25 18:00 75.5 56.7 52 S 5 G 11 29.80 1009.1 0.00 62 0.189
25 17:00 78.8 59.7 52 SW 2 G 11 29.81 1009.5 0.00 519 0.172
25 16:00 81.8 58.4 45 SSW 4 G 8 29.82 1009.9 0.00 680 0.151
25 15:00 79.3 59.1 50 S 5 G 13 29.84 1010.5 0.00 807 0.127
25 14:00 79.6 59.9 80.8 67.0 51 SW 3 G 10 29.84 1010.7 0.00 896 0.102
25 13:00 79.1 58.3 49 S 7 G 12 29.85 1010.9 0.00 942 0.076
25 12:00 80.1 60.4 51 SSW 3 G 11 29.85 1011.0 0.00 925 0.054
25 11:00 80.5 58.4 47 SW 3 G 8 29.86 1011.2 0.00 747 0.033
25 10:00 78.4 59.3 52 NNW 3 G 8 29.86 1011.3 0.00 745 0.016
25 09:00 75.5 61.1 61 N 1 G 5 29.86 1011.2 0.00 480 0.004
25 08:00 67.0 59.9 67.0 56.4 78 NW 4 G 6 29.85 1011.0 0.00 434 0.001
25 07:00 60.6 59.2 95 WNW 1 G 3 29.83 1010.4 0.00 39 0.000
25 06:00 57.1 56.5 98 Calm 29.81 1009.6 0.00 23 0.000
25 05:00 56.6 55.5 96 Calm 29.80 1009.1 0.00 0 0.000
25 04:00 57.6 56.5 96 Calm 29.77 1008.3 0.00 0 0.000
25 03:00 58.6 57.2 95 Calm 29.77 1008.1 0.00 0 0.000
25 02:00 59.6 57.9 73.6 59.6 94 Calm 29.76 1007.7 0.00 0 0.000
25 01:00 61.1 58.8 92 NW 0 G 1 29.74 1007.1 0.00 0 0.000
25 00:00 62.1 59.7 92 NW 1 G 3 29.73 1006.8 0.01 0 0.109
24 23:00 63.8 61.4 92 Calm 29.70 1006.0 0.01 0 0.109
24 22:00 65.7 62.7 90 Calm 29.69 1005.4 0.01 0 0.109
24 21:00 69.0 64.6 86 Calm 29.66 1004.3 0.01 0 0.109
24 20:00 73.6 66.7 85.2 73.6 79 Calm 29.63 1003.4 0.01 11 0.108
24 19:00 78.9 67.5 68 Calm 29.61 1002.7 0.01 53 0.106
24 18:00 84.8 66.9 55 WSW 1 G 7 29.58 1001.7 0.01 123 0.097
24 17:00 85.1 71.6 64 WNW 2 G 6 29.56 1001.2 0.01 438 0.085
24 16:00 83.7 71.1 66 WNW 4 G 9 29.53 1000.2 0.01 789 0.069
24 15:00 78.0 71.3 80 S 0 G 6 29.53 999.9 0.01 221 0.056
24 14:00 75.1 68.9 78.8 64.3 81 WSW 3 G 6 29.52 999.6 0.01 594 0.047
24 13:00 75.8 67.3 75 SW 3 G 9 29.50 999.1 0.01 244 0.028
24 12:00 72.4 66.9 83 WSW 5 G 11 29.50 999.1 0.01 942 0.014
24 11:00 68.8 67.0 94 S 1 G 4 29.49 998.5 0.01 360 0.009
24 10:00 69.7 67.3 92 SSW 1 G 6 29.46 997.6 0.01 95 0.005
24 09:00 66.6 66.0 98 WSW 2 G 10 29.46 997.7 0.01 141 0.002
24 08:00 64.3 63.7 64.3 62.2 98 S 4 G 15 29.45 997.2 0.01 0.01 0.01 0.01 98 0.001
24 07:00 62.6 62.0 98 WSW 4 G 11 29.45 997.5 0.00 30 0.000
24 06:00 62.7 62.1 98 WSW 2 G 12 29.44 997.2 0.00 19 0.000
24 05:00 62.4 61.8 98 SSW 2 G 6 29.44 997.0 0.00 0 0.000
24 04:00 62.6 61.7 97 WSW 1 G 8 29.46 997.6 0.00 0 0.000
24 03:00 63.1 62.2 97 S 1 G 7 29.47 998.0 0.00 0 0.000
24 02:00 63.8 62.9 65.2 61.9 97 SW 4 G 12 29.49 998.8 0.00 0 0.000
24 01:00 63.3 62.4 97 S 2 G 8 29.51 999.3 0.00 0 0.000
24 00:00 62.9 61.4 95 SW 2 G 11 29.53 999.9 0.16 0 0.064
23 23:00 64.0 62.5 95 S 4 G 10 29.54 1000.4 0.16 0 0.064
23 22:00 65.0 63.5 95 SSW 8 G 19 29.56 1000.9 0.16 0 0.064
23 21:00 63.7 62.8 97 S 4 G 8 29.57 1001.3 0.16 0 0.064
23 20:00 61.9 60.2 69.6 61.8 94 NE 0 G 2 29.58 1001.8 0.16 5 0.063
23 19:00 63.6 60.6 90 E 1 G 4 29.60 1002.4 0.16 62 0.061
23 18:00 65.3 61.7 88 ESE 2 G 6 29.61 1002.7 0.16 176 0.057
23 17:00 69.4 63.3 81 Calm 29.63 1003.5 0.16 285 0.049
23 16:00 69.2 64.5 85 S 3 G 9 29.67 1004.7 0.16 309 0.040
23 15:00 66.9 62.9 87 SSE 2 G 5 29.67 1004.9 0.16 413 0.030
23 14:00 65.8 62.5 65.8 59.4 89 SE 1 G 3 29.70 1006.0 0.16 636 0.021
23 13:00 61.8 58.8 90 Calm 29.73 1006.8 0.16 213 0.016
23 12:00 60.3 58.3 93 NE 2 G 5 29.75 1007.3 0.16 362 0.012
23 11:00 61.4 59.4 93 ENE 1 G 3 29.77 1008.1 0.16 179 0.008
23 10:00 61.5 59.8 94 Calm 29.77 1008.3 0.16 183 0.004
23 09:00 60.0 58.9 96 NE 2 G 5 29.77 1008.3 0.16 156 0.001
23 08:00 59.4 58.5 59.5 55.1 97 NE 0 G 2 29.80 1009.0 0.16 0.16 0.16 0.16 79 0.000
23 07:00 57.7 56.3 95 ENE 1 G 3 29.78 1008.4 0.00 7 0.000

Data generated by WxSolution Version 1.9.0.6, Build 2017.01.14.